»·PEaware :: N66P KSBP-KSMX

N66P :: KSBP-KSMX

FLIGHT INFORMATION

Flight Status: Arrived
Operator: Privately registered:
United States
More flights under this callsign
Pilot: Scott C. (31939)
Aircraft: CESSNA 172 SKYHAWK
(C172)
More flights by this aircraft type
Origin: KSBP San Luis Co Regl
United States
Destination: KSMX Santa Maria Pub/Capt Hancock
United States
More flights between these airports :: More routes between these airports
Route: +
File this flight plan on PilotEdge
Remarks:
Altitude:
(Current/Filed)
2,500ft
Speed:
(Current/Filed)
115kts
Departed: 08-Oct-20 12:01 PM
Arrived: 08-Oct-20 12:18 PM
Distance/Time
Traveled:
22nm/0:17
Distance/Time
To Go:
Arrived

Flight Plot

Page will automatically refresh every two minutes.


Map Options




Map Legend


Flown Route
Filed Route
Departure Airport
Arrival Airport
Navaid (VOR, NDB)
Fix

Horizontal Profiles

Position Reports

Time Latitude Longitude Heading Altitude Ground
Speed
08-Oct-20 11:20 35.236233 -120.634328 23 208ft 0kts
08-Oct-20 11:21 35.236233 -120.634328 23 208ft 0kts
08-Oct-20 11:22 35.236233 -120.634328 23 208ft 0kts
08-Oct-20 11:23 35.236233 -120.634328 23 208ft 0kts
08-Oct-20 11:24 35.236233 -120.634328 23 208ft 0kts
08-Oct-20 11:25 35.236236 -120.634326 28 208ft 0kts
08-Oct-20 11:26 35.235712 -120.634736 214 209ft 1kts
08-Oct-20 11:27 35.235693 -120.634752 214 209ft 0kts
08-Oct-20 11:28 35.235693 -120.634752 214 209ft 0kts
08-Oct-20 11:29 35.235693 -120.634752 214 209ft 0kts
08-Oct-20 11:30 35.235693 -120.634752 214 209ft 0kts
08-Oct-20 11:31 35.235693 -120.634752 214 209ft 0kts
08-Oct-20 11:32 35.235693 -120.634752 214 209ft 0kts
08-Oct-20 11:33 35.235533 -120.634874 230 209ft 0kts
08-Oct-20 11:34 35.235533 -120.634874 230 209ft 0kts
08-Oct-20 11:35 35.235533 -120.634874 230 209ft 0kts
08-Oct-20 11:36 35.235533 -120.634874 230 209ft 0kts
08-Oct-20 11:37 35.235533 -120.634874 230 209ft 0kts
08-Oct-20 11:38 35.235533 -120.634874 230 209ft 0kts
08-Oct-20 11:40 35.235533 -120.634874 230 209ft 0kts
08-Oct-20 11:41 35.235533 -120.634874 230 209ft 0kts
08-Oct-20 11:42 35.235533 -120.634874 230 209ft 0kts
08-Oct-20 11:43 35.235533 -120.634874 230 209ft 0kts
08-Oct-20 11:44 35.235533 -120.634874 230 209ft 0kts
08-Oct-20 11:45 35.235533 -120.634874 230 209ft 0kts
08-Oct-20 11:46 35.235533 -120.634874 230 209ft 0kts
08-Oct-20 11:47 35.235533 -120.634874 230 209ft 0kts
08-Oct-20 11:48 35.235533 -120.634874 230 209ft 0kts
08-Oct-20 11:49 35.235533 -120.634874 230 209ft 0kts
08-Oct-20 11:50 35.235533 -120.634874 230 209ft 0kts
08-Oct-20 11:51 35.235353 -120.634989 180 209ft 5kts
08-Oct-20 11:52 35.233872 -120.633049 125 216ft 16kts
08-Oct-20 11:53 35.233237 -120.632424 208 219ft 0kts
08-Oct-20 11:54 35.233237 -120.632424 208 219ft 0kts
08-Oct-20 11:55 35.233237 -120.632424 208 219ft 0kts
08-Oct-20 11:56 35.233237 -120.632424 208 219ft 0kts
08-Oct-20 11:57 35.233237 -120.632424 208 219ft 0kts
08-Oct-20 11:58 35.233237 -120.632424 208 219ft 0kts
08-Oct-20 11:59 35.233237 -120.632424 208 219ft 0kts
08-Oct-20 12:00 35.238834 -120.643369 307 355ft 84kts
08-Oct-20 12:01 35.251124 -120.668169 268 1193ft 85kts
08-Oct-20 12:02 35.227052 -120.666742 156 1752ft 105kts
08-Oct-20 12:03 35.198369 -120.651105 154 2123ft 122kts
08-Oct-20 12:04 35.168660 -120.633962 153 2105ft 109kts
08-Oct-20 12:05 35.141555 -120.617738 152 2105ft 107kts
08-Oct-20 12:06 35.114843 -120.600904 151 2106ft 107kts
08-Oct-20 12:07 35.088454 -120.583592 150 2108ft 108kts
08-Oct-20 12:08 35.062183 -120.565845 149 2119ft 107kts
08-Oct-20 12:09 35.034896 -120.546148 151 1841ft 117kts
08-Oct-20 12:10 35.004138 -120.535735 145 1546ft 119kts
08-Oct-20 12:11 34.980062 -120.509539 137 1339ft 115kts
08-Oct-20 12:12 34.954349 -120.487497 149 1322ft 110kts
08-Oct-20 12:13 34.928851 -120.471068 148 1288ft 101kts
08-Oct-20 12:14 34.908208 -120.448103 130 1113ft 97kts
08-Oct-20 12:15 34.895491 -120.424871 146 1042ft 73kts
08-Oct-20 12:16 34.884446 -120.436869 312 873ft 78kts
08-Oct-20 12:17 34.897717 -120.451806 315 246ft 32kts
08-Oct-20 12:18 34.900577 -120.453548 355 241ft 0kts
08-Oct-20 12:19 34.900730 -120.452874 134 241ft 7kts
08-Oct-20 12:20 34.900140 -120.451238 49 244ft 0kts

Navigation Log

Ident Type
Flight plan parsing failed, navigation log unavailable